Time;durP1;ratioP1;P1;durP2;ratioP2;P2;SDS_P1;SDS_P2;PMS_P1;PMS_P2;Temp;Humidity;BMP_temperature;BMP_pressure;BME280_temperature;BME280_humidity;BME280_pressure;Samples;Min_cycle;Max_cycle;Signal;HPM_P1;HPM_P2
2023/08/16 00:00:58;;;;;;;21.40;9.67;;;;;;;23.59;53.44;100970.70;124849;1099;102220;-79
2023/08/16 00:03:38;;;;;;;23.73;9.77;;;;;;;23.55;53.46;100974.30;124907;1102;102151;-79
2023/08/16 00:06:13;;;;;;;19.77;10.13;;;;;;;23.44;53.83;100970.86;124889;1099;104172;-79
2023/08/16 00:08:45;;;;;;;19.40;10.10;;;;;;;23.30;54.48;100976.34;124895;1100;104233;-79
2023/08/16 00:11:16;;;;;;;20.90;10.70;;;;;;;23.21;54.43;100976.42;124886;1099;104166;-78
2023/08/16 00:13:47;;;;;;;21.67;10.30;;;;;;;23.25;54.94;100980.83;124941;1099;104319;-79
2023/08/16 00:16:19;;;;;;;20.63;9.37;;;;;;;23.29;54.82;100985.27;125023;1099;104185;-79
2023/08/16 00:18:51;;;;;;;20.57;10.50;;;;;;;23.29;54.40;100982.59;124913;1102;104159;-79
2023/08/16 00:21:22;;;;;;;24.00;10.50;;;;;;;23.22;54.99;100986.21;124951;1099;104278;-80
2023/08/16 00:23:54;;;;;;;19.87;9.77;;;;;;;23.19;54.82;100986.23;124936;1099;102619;-79
2023/08/16 00:26:25;;;;;;;21.43;10.57;;;;;;;23.20;55.40;100990.70;124967;1099;104235;-80
2023/08/16 00:28:56;;;;;;;18.93;9.37;;;;;;;23.19;55.44;101000.53;124930;1102;102590;-79
2023/08/16 00:31:28;;;;;;;20.30;9.30;;;;;;;23.17;55.09;100996.98;124923;1099;104191;-79
2023/08/16 00:33:59;;;;;;;21.93;9.80;;;;;;;23.18;55.23;101008.58;124865;1099;101916;-79
2023/08/16 00:36:30;;;;;;;22.77;10.30;;;;;;;23.13;55.28;100996.10;124942;1099;102023;-81
2023/08/16 00:39:03;;;;;;;20.60;10.23;;;;;;;23.09;55.77;101002.41;124896;1099;101903;-79
2023/08/16 00:41:34;;;;;;;19.63;10.37;;;;;;;22.92;56.48;101010.52;124843;1102;104160;-79
2023/08/16 00:44:06;;;;;;;24.13;10.53;;;;;;;22.77;56.51;101011.50;124866;1099;104198;-79
2023/08/16 00:46:38;;;;;;;21.33;10.70;;;;;;;22.66;56.54;101009.78;124894;1099;104221;-79
2023/08/16 00:49:09;;;;;;;26.40;11.35;;;;;;;22.57;57.43;101006.27;124872;1099;102421;-79
2023/08/16 00:51:42;;;;;;;21.97;10.33;;;;;;;22.50;57.38;101001.88;124945;1099;102352;-79
2023/08/16 00:54:15;;;;;;;26.20;11.60;;;;;;;22.44;57.30;101001.91;124899;1099;104229;-78
2023/08/16 00:56:48;;;;;;;22.63;11.10;;;;;;;22.38;57.79;101005.49;125082;1099;104246;-78
2023/08/16 00:59:20;;;;;;;20.73;10.47;;;;;;;22.34;57.65;101010.86;124984;1099;102039;-82
2023/08/16 01:01:52;;;;;;;22.47;11.93;;;;;;;22.28;58.60;101005.51;124885;1099;104057;-79
2023/08/16 01:04:23;;;;;;;24.77;11.50;;;;;;;22.21;58.85;101015.35;124840;1099;104194;-78
2023/08/16 01:06:57;;;;;;;22.47;11.27;;;;;;;22.17;59.00;101019.80;124901;1102;104195;-79
2023/08/16 01:09:30;;;;;;;22.50;11.23;;;;;;;22.10;58.96;101018.06;124904;1102;104169;-79
2023/08/16 01:12:11;;;;;;;22.00;11.77;;;;;;;22.07;59.39;101023.42;124928;1102;104189;-79
2023/08/16 01:14:51;;;;;;;24.17;12.27;;;;;;;22.00;60.15;101019.89;124947;1099;104405;-79
2023/08/16 01:17:24;;;;;;;23.00;11.60;;;;;;;21.96;60.39;101011.88;125297;1099;104238;-80
2023/08/16 01:19:58;;;;;;;26.97;12.37;;;;;;;21.87;59.90;101024.35;125213;1099;102009;-80
2023/08/16 01:22:38;;;;;;;24.43;12.63;;;;;;;21.83;60.22;101027.95;124911;1100;102496;-80
2023/08/16 01:25:20;;;;;;;23.60;12.00;;;;;;;21.80;60.97;101033.30;124883;1101;102013;-78
2023/08/16 01:27:52;;;;;;;22.80;11.50;;;;;;;21.81;60.54;101024.36;124944;1099;102022;-79
2023/08/16 01:30:25;;;;;;;24.77;11.47;;;;;;;21.78;60.75;101021.70;124965;1102;104225;-78
2023/08/16 01:32:56;;;;;;;21.27;11.57;;;;;;;21.76;60.90;101022.62;125032;1102;102110;-79
2023/08/16 01:35:28;;;;;;;23.83;11.10;;;;;;;21.70;61.19;101020.84;125021;1099;104252;-79
2023/08/16 01:37:59;;;;;;;22.93;11.43;;;;;;;21.62;61.92;101010.17;125011;1102;102076;-79
2023/08/16 01:40:37;;;;;;;23.83;11.80;;;;;;;21.54;61.92;101010.17;124921;1102;102083;-79
2023/08/16 01:43:13;;;;;;;25.63;11.40;;;;;;;21.48;61.36;101010.16;125072;1099;102210;-79
2023/08/16 01:45:47;;;;;;;26.00;11.77;;;;;;;21.41;62.08;101016.41;124955;1102;104156;-79
2023/08/16 01:48:19;;;;;;;25.92;11.28;;;;;;;21.33;62.03;101018.17;125018;1102;104217;-80
2023/08/16 01:50:50;;;;;;;24.23;11.73;;;;;;;21.28;62.73;101015.50;124987;1099;104172;-79
2023/08/16 01:53:22;;;;;;;24.27;10.93;;;;;;;21.26;63.13;101013.75;124891;1099;102246;-79
2023/08/16 01:55:53;;;;;;;26.33;12.17;;;;;;;21.24;62.76;101004.83;124936;1099;103075;-79
2023/08/16 01:58:24;;;;;;;29.43;13.50;;;;;;;21.22;63.72;101004.83;124941;1099;102073;-78
2023/08/16 02:00:56;;;;;;;30.27;15.10;;;;;;;21.21;63.17;101013.74;125012;1102;102304;-79
2023/08/16 02:03:27;;;;;;;28.17;14.63;;;;;;;21.18;63.65;101011.95;125049;1102;104242;-79
2023/08/16 02:05:58;;;;;;;25.43;14.23;;;;;;;21.16;63.74;101015.50;125056;1099;104400;-81
2023/08/16 02:08:30;;;;;;;31.27;14.70;;;;;;;21.13;64.42;101012.83;125050;1099;104089;-78
2023/08/16 02:11:01;;;;;;;28.07;14.70;;;;;;;21.07;63.95;101005.73;124917;1099;104178;-79
2023/08/16 02:13:32;;;;;;;32.17;14.70;;;;;;;21.04;64.41;101010.19;124954;1099;104221;-80
2023/08/16 02:16:05;;;;;;;28.33;14.03;;;;;;;21.01;65.19;101013.73;124987;1099;104165;-79
2023/08/16 02:18:37;;;;;;;30.82;16.23;;;;;;;20.97;65.57;101011.94;124987;1102;103128;-81
2023/08/16 02:21:08;;;;;;;32.37;14.60;;;;;;;20.94;64.28;101020.84;124927;1102;102295;-79
2023/08/16 02:23:40;;;;;;;35.23;14.10;;;;;;;20.95;64.54;101011.05;125128;1099;104205;-79
2023/08/16 02:26:11;;;;;;;30.13;14.43;;;;;;;20.95;65.21;101005.72;125056;1101;102087;-79
2023/08/16 02:28:42;;;;;;;27.03;14.57;;;;;;;20.95;65.00;101008.39;125025;1102;104220;-79
2023/08/16 02:31:14;;;;;;;28.13;14.23;;;;;;;20.93;65.24;101010.17;125325;1099;104230;-79
2023/08/16 02:33:45;;;;;;;27.57;13.63;;;;;;;20.95;65.51;101013.72;125144;1102;104255;-80
2023/08/16 02:36:16;;;;;;;26.57;12.83;;;;;;;20.91;66.00;101014.59;125202;1102;102457;-80
2023/08/16 02:38:47;;;;;;;29.37;12.77;;;;;;;20.81;66.60;101019.91;125163;1099;102580;-79
2023/08/16 02:41:19;;;;;;;27.80;12.53;;;;;;;20.73;65.99;101018.14;125173;1099;102619;-79
2023/08/16 02:43:50;;;;;;;24.17;12.77;;;;;;;20.67;66.89;101012.80;124962;1102;104172;-79
2023/08/16 02:46:21;;;;;;;24.80;11.93;;;;;;;20.60;66.56;101022.49;125170;1099;104321;-79
2023/08/16 02:48:53;;;;;;;25.00;12.03;;;;;;;20.54;67.45;101010.06;125225;1099;102013;-81
2023/08/16 02:51:24;;;;;;;25.50;11.23;;;;;;;20.51;67.05;101017.17;125159;1099;102086;-82
2023/08/16 02:53:55;;;;;;;21.83;11.40;;;;;;;20.48;67.39;101013.58;125164;1099;101921;-79
2023/08/16 02:56:27;;;;;;;23.30;11.67;;;;;;;20.45;67.67;101021.57;125102;1102;102123;-79
2023/08/16 02:58:58;;;;;;;21.33;11.90;;;;;;;20.44;67.86;101019.81;125781;1099;104195;-82
2023/08/16 03:01:30;;;;;;;27.70;12.87;;;;;;;20.45;67.23;101021.57;126127;1100;101817;-79
2023/08/16 03:04:01;;;;;;;27.27;12.53;;;;;;;20.44;68.10;101021.56;126023;1102;101752;-79
2023/08/16 03:06:32;;;;;;;27.13;13.00;;;;;;;20.42;67.70;101016.23;126137;1099;102338;-80
2023/08/16 03:09:04;;;;;;;31.40;13.80;;;;;;;20.39;67.42;101016.22;125822;1099;101872;-79
2023/08/16 03:11:36;;;;;;;28.73;13.07;;;;;;;20.40;67.10;101014.47;125150;1099;104195;-80
2023/08/16 03:14:07;;;;;;;26.50;13.33;;;;;;;20.40;66.75;101012.68;125034;1099;104177;-80
2023/08/16 03:16:38;;;;;;;24.17;12.67;;;;;;;20.37;67.57;101012.67;125127;1102;104242;-80
2023/08/16 03:19:10;;;;;;;25.60;13.30;;;;;;;20.36;66.81;101013.54;125045;1100;104178;-79
2023/08/16 03:21:41;;;;;;;28.93;13.77;;;;;;;20.39;67.81;101016.22;124988;1099;104204;-80
2023/08/16 03:24:13;;;;;;;29.80;14.67;;;;;;;20.41;67.46;101019.80;125035;1102;104165;-79
2023/08/16 03:26:44;;;;;;;25.13;14.43;;;;;;;20.43;67.45;101018.02;125041;1099;104217;-78
2023/08/16 03:29:16;;;;;;;32.03;15.13;;;;;;;20.44;68.10;101013.56;125152;1099;102425;-78
2023/08/16 03:31:48;;;;;;;30.13;15.20;;;;;;;20.44;67.18;101019.81;124944;1099;104340;-78
2023/08/16 03:34:19;;;;;;;28.67;13.90;;;;;;;20.45;67.45;101016.24;125079;1102;104328;-79
2023/08/16 03:36:51;;;;;;;26.37;14.13;;;;;;;20.47;67.77;101024.24;125045;1099;103447;-79
2023/08/16 03:39:23;;;;;;;29.83;16.70;;;;;;;20.48;68.29;101021.58;125156;1100;101957;-79
2023/08/16 03:41:54;;;;;;;31.97;15.47;;;;;;;20.52;67.97;101018.92;125048;1102;101803;-82
2023/08/16 03:44:26;;;;;;;30.67;15.90;;;;;;;20.55;67.42;101024.27;125069;1099;101922;-77
2023/08/16 03:46:58;;;;;;;30.73;16.60;;;;;;;20.58;67.07;101024.28;124815;1099;104243;-77
2023/08/16 03:49:29;;;;;;;30.80;16.40;;;;;;;20.61;67.17;101033.16;124987;1102;104169;-77
2023/08/16 03:52:00;;;;;;;32.60;16.87;;;;;;;20.68;67.78;101023.46;125094;1099;104217;-80
2023/08/16 03:54:31;;;;;;;30.67;16.07;;;;;;;20.74;67.89;101020.81;124879;1099;104242;-78
2023/08/16 03:57:03;;;;;;;33.87;16.13;;;;;;;20.79;67.16;101020.82;124903;1099;102019;-79
2023/08/16 03:59:34;;;;;;;32.10;17.10;;;;;;;20.83;67.72;101020.83;124830;1102;104345;-77
2023/08/16 04:02:06;;;;;;;34.07;16.87;;;;;;;20.87;67.33;101004.83;124872;1099;104331;-77
2023/08/16 04:04:37;;;;;;;32.10;15.27;;;;;;;20.90;67.87;101010.17;124870;1102;101894;-78
2023/08/16 04:07:08;;;;;;;32.40;15.57;;;;;;;20.93;67.14;101004.84;124914;1099;101923;-77
2023/08/16 04:09:41;;;;;;;26.60;14.73;;;;;;;20.98;68.27;101006.60;124965;1102;103299;-77
2023/08/16 04:12:12;;;;;;;29.13;14.43;;;;;;;21.09;68.00;101001.28;125056;1102;103903;-78
2023/08/16 04:14:44;;;;;;;26.33;14.33;;;;;;;21.26;67.28;101003.07;125048;1102;102039;-76
2023/08/16 04:17:15;;;;;;;27.37;14.20;;;;;;;21.40;67.49;100993.27;124617;1102;102025;-76
2023/08/16 04:19:46;;;;;;;31.57;14.53;;;;;;;21.53;67.79;100991.49;124661;1102;102022;-75
2023/08/16 04:22:18;;;;;;;26.53;13.30;;;;;;;21.66;67.24;100995.02;124638;1100;104198;-80
2023/08/16 04:24:49;;;;;;;25.20;12.80;;;;;;;21.72;67.02;100989.66;124756;1102;104178;-75
2023/08/16 04:27:21;;;;;;;26.87;12.63;;;;;;;21.77;67.33;100985.22;124836;1102;105537;-75
2023/08/16 04:29:52;;;;;;;25.00;11.93;;;;;;;21.83;66.65;100987.88;124840;1099;104163;-79
2023/08/16 04:32:23;;;;;;;22.67;11.93;;;;;;;21.88;66.60;100980.73;124706;1102;104171;-74
2023/08/16 04:34:55;;;;;;;23.23;11.60;;;;;;;21.95;66.82;100975.36;124611;1102;104192;-74
2023/08/16 04:37:27;;;;;;;24.33;12.40;;;;;;;22.01;67.38;100983.36;124693;1102;102508;-78
2023/08/16 04:39:58;;;;;;;21.50;11.43;;;;;;;22.09;66.80;100976.19;124972;1102;104172;-77
2023/08/16 04:42:34;;;;;;;26.83;11.47;;;;;;;22.18;66.46;100973.48;124963;1103;104179;-77
2023/08/16 04:45:06;;;;;;;25.67;11.63;;;;;;;22.30;66.71;100974.30;124903;1102;104188;-76
2023/08/16 04:47:38;;;;;;;26.33;11.57;;;;;;;22.41;66.63;100967.17;124904;1102;102034;-78
2023/08/16 04:50:10;;;;;;;23.57;11.00;;;;;;;22.53;66.22;100968.86;124682;1102;104251;-76
2023/08/16 04:52:42;;;;;;;21.63;11.40;;;;;;;22.65;65.91;100970.58;124640;1102;104284;-77
2023/08/16 04:55:14;;;;;;;25.87;12.27;;;;;;;22.73;65.78;100972.28;124668;1100;102064;-76
2023/08/16 04:57:47;;;;;;;21.10;10.82;;;;;;;22.82;65.98;100971.34;125129;1102;102595;-77
2023/08/16 05:00:20;;;;;;;20.60;10.73;;;;;;;22.93;66.24;100976.62;125229;1099;102309;-78
2023/08/16 05:03:00;;;;;;;21.87;11.03;;;;;;;23.06;65.98;100985.42;125155;1102;102027;-79
2023/08/16 05:05:32;;;;;;;20.40;11.00;;;;;;;23.16;65.54;100981.82;125135;1102;103048;-76
2023/08/16 05:08:05;;;;;;;17.93;10.43;;;;;;;23.27;66.01;100981.73;125013;1100;104195;-79
2023/08/16 05:10:36;;;;;;;21.03;10.33;;;;;;;23.37;65.35;100988.75;124939;1102;104298;-76
2023/08/16 05:13:08;;;;;;;18.73;10.30;;;;;;;23.47;65.50;100986.89;124909;1102;104169;-79
2023/08/16 05:15:40;;;;;;;18.83;10.73;;;;;;;23.56;65.13;100994.84;124658;1102;101937;-78
2023/08/16 05:18:14;;;;;;;20.43;9.97;;;;;;;23.66;65.01;100985.78;125913;1101;104227;-76
2023/08/16 05:20:47;;;;;;;19.10;9.63;;;;;;;23.79;65.04;100985.65;124808;1102;104201;-79
2023/08/16 05:23:20;;;;;;;19.90;9.87;;;;;;;23.90;65.12;100988.24;126199;1101;101816;-78
2023/08/16 05:26:01;;;;;;;21.13;10.40;;;;;;;24.01;64.60;100983.63;125804;1102;101875;-80
2023/08/16 05:28:39;;;;;;;18.53;9.37;;;;;;;24.11;64.49;100984.43;125097;1102;104238;-79
2023/08/16 05:31:13;;;;;;;19.57;9.63;;;;;;;24.19;64.01;100982.53;126558;1102;101741;-84
2023/08/16 05:33:46;;;;;;;19.00;9.83;;;;;;;24.29;64.15;100986.84;125385;1102;102323;-79
2023/08/16 05:36:21;;;;;;;19.13;10.07;;;;;;;24.38;64.00;100991.20;125442;1102;101778;-79
2023/08/16 05:38:55;;;;;;;22.73;10.80;;;;;;;24.46;63.91;100986.61;125947;1100;102534;-77
2023/08/16 05:41:28;;;;;;;;;;;;;;;24.55;63.98;100994.53;124750;1100;104200;-78
2023/08/16 05:44:02;;;;;;;18.00;9.97;;;;;;;24.63;63.64;100993.58;124878;1101;104091;-77
2023/08/16 05:46:34;;;;;;;;;;;;;;;24.72;63.70;100983.59;125586;1102;103131;-80
2023/08/16 05:49:06;;;;;;;18.47;10.10;;;;;;;24.79;63.11;100995.10;124789;1102;104245;-81
2023/08/16 05:51:38;;;;;;;19.63;10.00;;;;;;;24.90;63.36;100994.94;125296;1101;102409;-77
2023/08/16 05:54:10;;;;;;;22.77;9.70;;;;;;;24.99;63.02;101001.97;124721;1102;102080;-78
2023/08/16 05:56:46;;;;;;;17.30;9.17;;;;;;;25.08;62.83;101005.38;125978;1100;102061;-79
2023/08/16 05:59:18;;;;;;;16.03;9.50;;;;;;;25.12;62.66;101006.24;125895;1102;104289;-77
2023/08/16 06:01:50;;;;;;;20.97;9.00;;;;;;;25.18;62.58;101007.91;124464;1102;104207;-76
2023/08/16 06:04:28;;;;;;;17.33;9.37;;;;;;;25.26;61.95;101006.02;124495;1102;102224;-77
2023/08/16 06:07:00;;;;;;;15.57;8.43;;;;;;;25.32;61.97;101010.41;124378;1102;104169;-75
2023/08/16 06:09:33;;;;;;;18.87;8.80;;;;;;;25.38;62.33;101018.36;124289;1102;104310;-77
2023/08/16 06:12:05;;;;;;;14.60;8.00;;;;;;;25.43;61.39;101019.16;124226;1102;104189;-72
2023/08/16 06:14:36;;;;;;;16.53;8.70;;;;;;;25.47;61.12;101018.20;124201;1102;104237;-72
2023/08/16 06:17:11;;;;;;;20.53;9.47;;;;;;;25.50;60.86;101025.33;124195;1102;104175;-72
2023/08/16 06:19:43;;;;;;;20.23;9.00;;;;;;;25.57;60.55;101018.91;124045;1102;102409;-72
2023/08/16 06:22:14;;;;;;;21.17;9.10;;;;;;;25.61;60.67;101017.95;124223;1102;104207;-74
2023/08/16 06:24:46;;;;;;;16.67;8.40;;;;;;;25.65;60.41;101019.67;124214;1102;101917;-73
2023/08/16 06:27:27;;;;;;;20.10;9.10;;;;;;;25.73;60.77;101028.47;124293;1102;102386;-74
2023/08/16 06:30:00;;;;;;;18.57;9.30;;;;;;;25.80;60.57;101034.61;124214;1102;102501;-72
2023/08/16 06:32:33;;;;;;;16.50;8.13;;;;;;;25.84;59.59;101029.14;124333;1102;104300;-77
2023/08/16 06:35:08;;;;;;;14.23;8.55;;;;;;;25.95;60.25;101036.13;124289;1102;104265;-75
2023/08/16 06:37:40;;;;;;;16.93;8.63;;;;;;;26.06;59.56;101034.13;124804;1101;104227;-79
2023/08/16 06:40:17;;;;;;;17.93;8.50;;;;;;;26.12;59.13;101038.52;124469;1102;104184;-77
2023/08/16 06:42:56;;;;;;;18.57;9.10;;;;;;;26.18;59.26;101039.27;124371;1102;104159;-77
2023/08/16 06:45:28;;;;;;;19.10;9.03;;;;;;;26.27;59.10;101043.58;124338;1103;101933;-79
2023/08/16 06:48:07;;;;;;;19.83;8.73;;;;;;;26.35;59.15;101040.70;125136;1102;101963;-79
2023/08/16 06:50:41;;;;;;;13.60;7.90;;;;;;;26.45;58.50;101034.22;125113;1102;101794;-81
2023/08/16 06:53:19;;;;;;;19.93;8.37;;;;;;;26.60;58.63;101034.78;125150;1102;104235;-77
2023/08/16 06:55:53;;;;;;;20.73;8.63;;;;;;;26.68;58.38;101041.81;125114;1102;104207;-79
2023/08/16 06:58:35;;;;;;;17.87;8.53;;;;;;;26.76;57.94;101048.84;124476;1102;102557;-77
2023/08/16 07:01:11;;;;;;;17.60;8.53;;;;;;;26.87;57.99;101046.78;125364;1101;102635;-80
2023/08/16 07:03:47;;;;;;;16.90;8.40;;;;;;;26.96;57.42;101051.04;125726;1101;104239;-76
2023/08/16 07:06:37;;;;;;;17.07;8.70;;;;;;;27.05;57.23;101045.44;124506;1102;101949;-76
2023/08/16 07:10:04;;;;;;;;;;;;;;;;;;;;;
2023/08/16 07:13:00;;;;;;;16.47;8.00;;;;;;;27.36;56.98;101048.31;124726;1102;107883;-79
2023/08/16 07:16:12;;;;;;;20.43;8.87;;;;;;;27.49;56.40;101046.19;125271;1102;102193;-82
2023/08/16 07:22:58;;;;;;;15.37;7.90;;;;;;;27.90;56.17;101037.91;125150;1106;101909;-83
2023/08/16 07:29:49;;;;;;;;;;;;;;;;;;;;;
2023/08/16 07:33:02;;;;;;;;;;;;;;;;;;;;;
2023/08/16 07:36:10;;;;;;;15.27;8.17;;;;;;;28.71;54.15;101044.59;125053;1102;104179;-78
2023/08/16 07:39:19;;;;;;;16.93;8.13;;;;;;;28.86;53.54;101041.41;125380;1101;101849;-79
2023/08/16 07:42:07;;;;;;;14.03;7.47;;;;;;;28.99;53.45;101044.59;125163;1101;102694;-77
2023/08/16 07:45:03;;;;;;;;;;;;;;;;;;;;;
2023/08/16 07:48:08;;;;;;;15.90;8.27;;;;;;;29.39;52.91;101041.47;125053;1105;104393;-81
2023/08/16 07:51:35;;;;;;;18.03;8.00;;;;;;;29.57;51.63;101047.17;125075;1102;101888;-81
2023/08/16 07:54:14;;;;;;;16.67;7.93;;;;;;;29.81;50.54;101044.56;125058;1102;101964;-75
2023/08/16 07:57:06;;;;;;;15.43;7.53;;;;;;;29.95;50.53;101047.67;125625;1101;101983;-80
2023/08/16 08:00:11;;;;;;;18.87;7.60;;;;;;;30.14;49.00;101052.38;125382;1102;104104;-86
2023/08/16 08:03:00;;;;;;;16.30;7.73;;;;;;;30.28;49.44;101050.06;125548;1102;102616;-85
2023/08/16 08:05:39;;;;;;;14.70;7.27;;;;;;;30.36;49.23;101047.06;125826;1102;101802;-81
2023/08/16 08:08:35;;;;;;;13.47;7.37;;;;;;;30.45;48.92;101036.78;125986;1101;101759;-80
2023/08/16 08:11:22;;;;;;;12.27;6.67;;;;;;;30.54;48.05;101040.06;125469;1102;102140;-81
2023/08/16 08:14:03;;;;;;;15.13;6.90;;;;;;;30.57;47.86;101035.41;124667;1102;101995;-83
2023/08/16 08:16:49;;;;;;;13.50;6.30;;;;;;;30.68;47.80;101026.86;125392;1102;102313;-82
2023/08/16 08:19:23;;;;;;;14.47;6.70;;;;;;;30.90;47.50;101028.70;126228;1101;101817;-80
2023/08/16 08:22:00;;;;;;;13.67;6.90;;;;;;;30.98;47.25;101015.77;125170;1102;101873;-80
2023/08/16 08:24:36;;;;;;;19.20;7.97;;;;;;;31.01;46.85;101021.06;125139;1102;104276;-82
2023/08/16 08:27:11;;;;;;;18.50;7.47;;;;;;;31.00;46.62;101022.00;125247;1102;104163;-78
2023/08/16 08:30:09;;;;;;;12.27;6.20;;;;;;;30.98;46.43;101019.35;125875;1101;101886;-85
2023/08/16 08:33:39;;;;;;;12.53;6.87;;;;;;;31.09;45.41;101016.20;125581;1102;104211;-82
2023/08/16 08:36:31;;;;;;;13.13;7.03;;;;;;;31.13;44.93;101006.97;125918;1101;101915;-85
2023/08/16 08:39:34;;;;;;;12.20;6.57;;;;;;;31.12;45.17;101007.94;125867;1103;101930;-84
2023/08/16 08:42:19;;;;;;;;;;;;;;;;;;;;;
2023/08/16 08:45:01;;;;;;;14.13;6.47;;;;;;;31.29;44.47;101006.32;124861;1100;102019;-77
2023/08/16 08:47:38;;;;;;;10.73;6.10;;;;;;;31.26;44.56;101007.36;124839;1102;102089;-79
2023/08/16 08:50:45;;;;;;;14.83;6.67;;;;;;;31.22;43.86;101004.84;126781;1100;101953;-84
2023/08/16 08:53:38;;;;;;;14.53;6.63;;;;;;;31.39;43.83;101002.28;125636;1102;103120;-90
2023/08/16 08:56:27;;;;;;;10.63;6.33;;;;;;;31.54;43.81;100989.92;125367;1102;104329;-81
2023/08/16 08:59:04;;;;;;;14.07;6.63;;;;;;;31.76;43.44;100989.84;126565;1100;102041;-81
2023/08/16 09:01:52;;;;;;;11.73;6.23;;;;;;;31.81;42.49;100987.78;127139;1100;101311;-88
2023/08/16 09:04:38;;;;;;;9.50;6.00;;;;;;;31.74;43.04;100999.85;126832;1101;101785;-83
2023/08/16 09:07:16;;;;;;;11.93;6.67;;;;;;;31.60;41.02;100988.75;127022;1098;101925;-83
2023/08/16 09:09:49;;;;;;;12.43;6.60;;;;;;;31.65;41.14;100992.13;126087;1099;101583;-84
2023/08/16 09:12:27;;;;;;;9.90;6.00;;;;;;;31.70;42.10;100987.40;126486;1098;104134;-85
2023/08/16 09:15:12;;;;;;;12.57;6.40;;;;;;;31.69;41.42;100981.07;125523;1102;101804;-78
2023/08/16 09:17:45;;;;;;;12.73;6.90;;;;;;;31.67;41.77;100987.53;125970;1100;104214;-84
2023/08/16 09:20:23;;;;;;;12.97;6.20;;;;;;;31.80;41.58;100991.44;124402;1102;104217;-78
2023/08/16 09:22:56;;;;;;;12.20;6.40;;;;;;;31.78;41.04;100987.92;125379;1102;104194;-82
2023/08/16 09:25:29;;;;;;;10.80;6.03;;;;;;;31.78;40.79;100984.34;125668;1099;102087;-83
2023/08/16 09:28:01;;;;;;;11.12;5.87;;;;;;;31.94;40.92;100988.09;126355;1098;101792;-81
2023/08/16 09:30:37;;;;;;;11.30;6.20;;;;;;;31.99;40.81;100985.17;125918;1099;104310;-83
2023/08/16 09:33:13;;;;;;;11.53;5.83;;;;;;;31.97;40.79;100977.09;126060;1099;102229;-83
2023/08/16 09:35:52;;;;;;;11.60;6.10;;;;;;;31.93;40.83;100982.73;126280;1098;101652;-79
2023/08/16 09:38:27;;;;;;;12.37;6.23;;;;;;;31.86;40.19;100977.59;127004;1101;101829;-79
2023/08/16 09:41:00;;;;;;;10.90;6.40;;;;;;;31.89;40.08;100974.73;125265;1102;104246;-78
2023/08/16 09:43:36;;;;;;;11.43;5.70;;;;;;;31.93;40.29;100971.89;126474;1101;101881;-80
2023/08/16 09:46:23;;;;;;;10.07;5.50;;;;;;;32.00;40.07;100978.80;124285;1099;102343;-81
2023/08/16 09:49:14;;;;;;;11.70;5.70;;;;;;;32.10;40.19;100972.04;126066;1098;104381;-81
2023/08/16 09:52:14;;;;;;;10.23;6.13;;;;;;;32.12;40.00;100961.98;126010;1098;104164;-83
2023/08/16 09:55:00;;;;;;;11.60;6.40;;;;;;;32.18;40.04;100969.83;126025;1099;101611;-83
2023/08/16 09:57:40;;;;;;;10.15;5.95;;;;;;;32.25;39.71;100970.41;125733;1102;101757;-88
2023/08/16 10:00:23;;;;;;;10.10;5.58;;;;;;;32.28;39.57;100962.13;125909;1102;104325;-81
2023/08/16 10:03:16;;;;;;;11.40;5.70;;;;;;;32.24;39.58;100961.40;125303;1102;104165;-83
2023/08/16 10:05:57;;;;;;;11.10;5.60;;;;;;;32.23;39.36;100961.47;125499;1102;104261;-82
2023/08/16 10:08:40;;;;;;;10.87;5.97;;;;;;;32.24;38.99;100955.06;125890;1102;104236;-78
2023/08/16 10:11:16;;;;;;;11.53;5.90;;;;;;;32.16;38.72;100955.43;125946;1102;101737;-78
2023/08/16 10:13:50;;;;;;;13.47;5.97;;;;;;;32.11;38.91;100946.63;125944;1102;101909;-76
2023/08/16 10:16:28;;;;;;;10.03;5.80;;;;;;;32.12;38.33;100952.97;125058;1102;104265;-79
2023/08/16 10:19:12;;;;;;;12.30;6.30;;;;;;;32.07;38.36;100945.87;124698;1102;104051;-79
2023/08/16 10:21:54;;;;;;;11.00;5.90;;;;;;;32.06;38.47;100938.67;124617;1102;103663;-79
2023/08/16 10:24:39;;;;;;;10.43;5.60;;;;;;;32.23;38.25;100934.33;124428;1102;104265;-79
2023/08/16 10:27:50;;;;;;;10.60;5.40;;;;;;;32.45;38.35;100931.44;124453;1102;104223;-82
2023/08/16 10:30:31;;;;;;;12.23;6.23;;;;;;;32.54;38.18;100930.98;124652;1102;102560;-77
2023/08/16 10:33:20;;;;;;;13.30;6.03;;;;;;;32.63;38.28;100929.66;124323;1102;104233;-77
2023/08/16 10:36:15;;;;;;;12.35;5.62;;;;;;;32.77;37.93;100928.97;125435;1099;104357;-79
2023/08/16 10:39:35;;;;;;;13.28;6.22;;;;;;;32.76;37.62;100921.80;124704;1099;102027;-78
2023/08/16 10:42:36;;;;;;;9.53;5.40;;;;;;;32.77;37.03;100920.81;126163;1101;103687;-80
2023/08/16 10:45:41;;;;;;;12.60;5.30;;;;;;;32.66;37.31;100918.64;125924;1099;101884;-80
2023/08/16 10:48:55;;;;;;;9.07;5.40;;;;;;;32.67;37.28;100916.83;127649;1098;101729;-77
2023/08/16 10:51:32;;;;;;;10.20;5.20;;;;;;;32.66;36.95;100917.77;127497;1098;101758;-78
2023/08/16 10:54:27;;;;;;;10.30;5.23;;;;;;;32.63;36.45;100915.17;127421;1098;101230;-79
2023/08/16 10:57:16;;;;;;;13.80;5.40;;;;;;;32.70;36.54;100905.80;126357;1098;102079;-80
2023/08/16 11:00:12;;;;;;;9.97;5.30;;;;;;;32.76;36.35;100910.93;126553;1098;104207;-79
2023/08/16 11:03:06;;;;;;;11.88;5.10;;;;;;;32.74;36.17;100902.86;125386;1099;101872;-76
2023/08/16 11:12:04;;;;;;;12.90;5.07;;;;;;;32.70;35.90;100894.94;126261;1099;103992;-79
2023/08/16 11:14:47;;;;;;;12.10;5.20;;;;;;;32.65;36.12;100897.02;124446;1099;102039;-79
2023/08/16 11:17:47;;;;;;;8.47;4.70;;;;;;;32.71;35.77;100888.52;124447;1099;104169;-79
2023/08/16 11:20:25;;;;;;;10.10;4.90;;;;;;;32.76;35.75;100883.76;126358;1099;104216;-76
2023/08/16 11:23:02;;;;;;;5.80;4.30;;;;;;;32.85;35.83;100883.28;125270;1102;101823;-75
2023/08/16 11:25:43;;;;;;;8.07;4.70;;;;;;;33.07;35.70;100876.73;126721;1098;102358;-77
2023/08/16 11:28:34;;;;;;;7.17;4.33;;;;;;;33.24;35.53;100865.87;125986;1099;101907;-78
2023/08/16 11:31:11;;;;;;;11.30;5.27;;;;;;;33.34;35.61;100874.40;126059;1098;101708;-77
2023/08/16 11:34:03;;;;;;;8.00;4.73;;;;;;;33.53;35.52;100865.24;126914;1098;101460;-78
2023/08/16 11:36:59;;;;;;;6.87;4.90;;;;;;;33.68;35.00;100867.13;127017;1098;101775;-80
2023/08/16 11:39:46;;;;;;;6.87;4.47;;;;;;;33.66;34.24;100867.20;126252;1098;101919;-75
2023/08/16 11:42:37;;;;;;;8.63;4.70;;;;;;;33.61;34.38;100865.69;124485;1102;104366;-78
2023/08/16 11:49:23;;;;;;;5.97;4.20;;;;;;;33.62;33.97;100849.28;124602;1102;102753;-78
2023/08/16 11:52:05;;;;;;;7.43;4.37;;;;;;;33.70;33.88;100842.55;126186;1099;102228;-79
2023/08/16 11:54:42;;;;;;;11.23;3.90;;;;;;;33.67;33.42;100839.05;126002;1099;104268;-79
2023/08/16 11:58:19;;;;;;;5.43;4.10;;;;;;;33.68;33.08;100835.34;125493;1099;101739;-81
2023/08/16 12:01:14;;;;;;;6.27;4.23;;;;;;;33.65;32.83;100832.79;125941;1099;102534;-79
2023/08/16 12:04:33;;;;;;;10.97;4.23;;;;;;;33.63;32.89;100829.28;125389;1102;101839;-82
2023/08/16 12:13:48;;;;;;;8.80;4.30;;;;;;;33.36;32.90;100819.93;125789;1102;101902;-83
2023/08/16 12:16:28;;;;;;;8.30;4.53;;;;;;;33.27;33.07;100814.04;125867;1102;101772;-82
2023/08/16 12:19:17;;;;;;;10.77;4.20;;;;;;;33.32;33.00;100805.63;125671;1099;104181;-85
2023/08/16 12:22:17;;;;;;;6.20;3.97;;;;;;;33.41;33.36;100798.78;126412;1099;101685;-79
2023/08/16 12:25:03;;;;;;;8.20;4.33;;;;;;;33.52;33.33;100804.53;127063;1098;101933;-83